GCLA

La Palma Airport

Sta Cruz de la Palma, La Palma Island, Spain
METAR GCLA 172300Z AUTO 03017KT 360V060 9999 OVC038/// 23/17 Q1019
Observed Flight Rules
Jul-17 @ 23:00 UTC (17 minutes ago) Visual Flight Rules
Wind Visibility Clouds
30° at 17 knots 10,000+ meters
  • Overcast at 3,800' AGL
Temperatures Readings
Current 23°C / 73°F
Dewpoint 17°C / 63°F
Humidity 69%
Altimeter 30.09" Hg
Pressure 1019 hPa
Elevation 31
METAR GCLA 172300Z AUTO 03017KT 360V060 9999 OVC038/// 23/17 Q1019
Observed Flight Rules
Jul-17 @ 23:00 UTC
(17 minutes ago)
VFR
Wind Visibility
30° at 17 knots 10,000+ meters
Clouds
  • Overcast at 3,800' AGL
Temperature Dewpoint
23°C / 73°F 17°C / 63°F
Humidity Altimeter Pressure
69% 30.09" Hg 1019 hPa